Time;durP1;ratioP1;P1;durP2;ratioP2;P2;SDS_P1;SDS_P2;PMS_P1;PMS_P2;Temp;Humidity;BMP_temperature;BMP_pressure;BME280_temperature;BME280_humidity;BME280_pressure;Samples;Min_cycle;Max_cycle;Signal;HPM_P1;HPM_P2
2022/06/15 00:00:44;;;;;;;2.00;1.83;;;;;;;-143.85;100.00;70650.75;5039334;28;20028;-87
2022/06/15 00:03:12;;;;;;;1.40;1.10;;;;;;;-143.85;100.00;70650.75;5039037;28;20495;-87
2022/06/15 00:05:37;;;;;;;2.10;1.70;;;;;;;-143.85;100.00;70650.75;5039095;28;20029;-87
2022/06/15 00:08:04;;;;;;;1.38;1.02;;;;;;;-143.85;100.00;70650.75;5038937;28;20029;-87
2022/06/15 00:10:29;;;;;;;1.23;1.13;;;;;;;-143.85;100.00;70650.75;5056779;28;20495;-88
2022/06/15 00:12:54;;;;;;;3.33;1.17;;;;;;;-143.85;100.00;70650.75;5038408;28;20052;-87
2022/06/15 00:15:20;;;;;;;1.15;1.00;;;;;;;-143.85;100.00;70650.75;5039686;28;20032;-86
2022/06/15 00:17:45;;;;;;;1.17;1.08;;;;;;;-143.85;100.00;70650.75;5039484;28;20444;-86
2022/06/15 00:20:11;;;;;;;0.68;0.68;;;;;;;-143.85;100.00;70650.75;5038789;28;20036;-87
2022/06/15 00:22:39;;;;;;;2.75;1.75;;;;;;;-143.85;100.00;70650.75;5038784;28;20029;-87
2022/06/15 00:25:05;;;;;;;2.25;1.23;;;;;;;-143.85;100.00;70650.75;5038580;28;20035;-88
2022/06/15 00:27:30;;;;;;;1.00;1.00;;;;;;;-143.85;100.00;70650.75;5038491;28;20123;-87
2022/06/15 00:29:55;;;;;;;1.27;1.17;;;;;;;-143.85;100.00;70650.75;5039449;28;20032;-86
2022/06/15 00:32:21;;;;;;;1.27;1.15;;;;;;;-143.85;100.00;70650.75;5039047;28;20028;-86
2022/06/15 00:34:46;;;;;;;1.00;0.93;;;;;;;-143.85;100.00;70650.75;5038946;28;20028;-87
2022/06/15 00:37:12;;;;;;;1.10;1.00;;;;;;;-143.85;100.00;70650.75;5038320;28;20432;-87
2022/06/15 00:39:38;;;;;;;1.35;1.25;;;;;;;-143.85;100.00;70650.75;5038273;28;20029;-87
2022/06/15 00:42:04;;;;;;;2.47;1.58;;;;;;;-143.85;100.00;70650.75;5038259;28;20036;-86
2022/06/15 00:44:37;;;;;;;1.00;1.00;;;;;;;-143.85;100.00;70650.75;5038166;28;20021;-86
2022/06/15 00:47:11;;;;;;;1.63;1.23;;;;;;;-143.85;100.00;70650.75;5039010;28;20033;-86
2022/06/15 00:49:42;;;;;;;1.20;1.10;;;;;;;-143.85;100.00;70650.75;5056252;28;20526;-86
2022/06/15 00:52:09;;;;;;;1.73;1.30;;;;;;;-143.85;100.00;70650.75;5055861;28;20461;-87
2022/06/15 00:54:36;;;;;;;0.85;0.75;;;;;;;-143.85;100.00;70650.75;5037926;28;20033;-86
2022/06/15 00:57:02;;;;;;;1.33;1.02;;;;;;;-143.85;100.00;70650.75;5037063;28;20048;-86
2022/06/15 00:59:34;;;;;;;2.55;1.40;;;;;;;-143.85;100.00;70650.75;5037677;28;20029;-86
2022/06/15 01:02:00;;;;;;;6.35;1.88;;;;;;;-143.85;100.00;70650.75;5038298;28;20040;-86
2022/06/15 01:04:32;;;;;;;4.00;1.27;;;;;;;-143.85;100.00;70650.75;5037787;28;20458;-85
2022/06/15 01:07:12;;;;;;;1.40;1.30;;;;;;;-143.85;100.00;70650.75;5038502;28;20028;-85
2022/06/15 01:09:49;;;;;;;1.23;1.13;;;;;;;-143.85;100.00;70650.75;5037404;28;20028;-86
2022/06/15 01:12:17;;;;;;;1.27;1.25;;;;;;;-143.85;100.00;70650.75;5037564;28;20032;-85
2022/06/15 01:15:01;;;;;;;1.30;1.20;;;;;;;-143.85;100.00;70650.75;5038258;28;20108;-87
2022/06/15 01:18:05;;;;;;;1.80;1.13;;;;;;;-143.85;100.00;70650.75;5038140;28;20472;-87
2022/06/15 01:20:52;;;;;;;11.07;1.13;;;;;;;-143.85;100.00;70650.75;5037544;28;20087;-87
2022/06/15 01:23:30;;;;;;;2.83;1.08;;;;;;;-143.85;100.00;70650.75;5038391;28;20057;-86
2022/06/15 01:26:01;;;;;;;1.75;1.20;;;;;;;-143.85;100.00;70650.75;5055854;28;20040;-86
2022/06/15 01:28:42;;;;;;;3.38;1.20;;;;;;;-143.85;100.00;70650.75;5037464;28;20123;-87
2022/06/15 01:31:49;;;;;;;2.95;1.15;;;;;;;-143.85;100.00;70650.75;5038094;28;20111;-88
2022/06/15 01:34:39;;;;;;;2.53;1.00;;;;;;;-143.85;100.00;70650.75;5037267;28;20040;-86
2022/06/15 01:37:18;;;;;;;2.25;1.02;;;;;;;-143.85;100.00;70650.75;5054212;28;20098;-87
2022/06/15 01:40:01;;;;;;;1.20;1.10;;;;;;;-143.85;100.00;70650.75;5037362;28;20032;-87
2022/06/15 01:42:43;;;;;;;1.50;1.40;;;;;;;-143.85;100.00;70650.75;5055594;28;20017;-87
2022/06/15 01:45:16;;;;;;;9.15;1.45;;;;;;;-143.85;100.00;70650.75;5037125;28;20029;-87
2022/06/15 01:47:44;;;;;;;2.83;1.95;;;;;;;-143.85;100.00;70650.75;5037193;28;20025;-87
2022/06/15 01:50:15;;;;;;;;;;;;;;;-143.85;100.00;70650.75;5037803;28;20401;-87
2022/06/15 01:52:46;;;;;;;1.85;1.58;;;;;;;-143.85;100.00;70650.75;5037875;28;20001;-87
2022/06/15 01:55:19;;;;;;;1.13;0.90;;;;;;;-143.85;100.00;70650.75;5036904;28;20025;-87
2022/06/15 01:57:49;;;;;;;1.17;1.02;;;;;;;-143.85;100.00;70650.75;5054804;28;20127;-87
2022/06/15 02:00:17;;;;;;;3.03;1.05;;;;;;;-143.85;100.00;70650.75;5036826;28;20117;-87
2022/06/15 02:02:57;;;;;;;0.90;0.90;;;;;;;-143.85;100.00;70650.75;5037255;28;20028;-87
2022/06/15 02:05:29;;;;;;;2.38;1.52;;;;;;;-143.85;100.00;70650.75;5036776;28;20052;-87
2022/06/15 02:08:24;;;;;;;1.55;1.42;;;;;;;-143.85;100.00;70650.75;5036756;28;20028;-86
2022/06/15 02:11:02;;;;;;;1.65;1.13;;;;;;;-143.85;100.00;70650.75;5054726;28;20208;-86
2022/06/15 02:13:35;;;;;;;1.65;1.27;;;;;;;-143.85;100.00;70650.75;5036999;28;20476;-86
2022/06/15 02:16:07;;;;;;;1.13;1.00;;;;;;;-143.85;100.00;70650.75;5036889;28;20060;-86
2022/06/15 02:18:35;;;;;;;1.30;1.20;;;;;;;-143.85;100.00;70650.75;5036427;28;20061;-86
2022/06/15 02:21:05;;;;;;;1.45;1.33;;;;;;;-143.85;100.00;70650.75;5036475;28;20060;-86
2022/06/15 02:23:33;;;;;;;1.33;1.23;;;;;;;-143.85;100.00;70650.75;5036504;28;20072;-86
2022/06/15 02:26:00;;;;;;;2.58;1.10;;;;;;;-143.85;100.00;70650.75;5036395;28;20024;-86
2022/06/15 02:28:31;;;;;;;5.20;1.57;;;;;;;-143.85;100.00;70650.75;5036175;28;20032;-85
2022/06/15 02:30:57;;;;;;;6.65;1.80;;;;;;;-143.85;100.00;70650.75;5036800;28;20025;-85
2022/06/15 02:33:29;;;;;;;2.38;1.73;;;;;;;-143.85;100.00;70650.75;5036128;28;20054;-85
2022/06/15 02:35:57;;;;;;;1.33;1.20;;;;;;;-143.85;100.00;70650.75;5036074;28;20465;-86
2022/06/15 02:38:23;;;;;;;2.53;1.60;;;;;;;-143.85;100.00;70650.75;5036224;28;20033;-86
2022/06/15 02:40:49;;;;;;;1.40;1.27;;;;;;;-143.85;100.00;70650.75;5035943;28;20256;-86
2022/06/15 02:43:19;;;;;;;15.98;1.60;;;;;;;-143.85;100.00;70650.75;5036079;28;20025;-86
2022/06/15 02:45:47;;;;;;;1.45;1.27;;;;;;;-143.85;100.00;70650.75;5036187;28;20029;-86
2022/06/15 02:48:14;;;;;;;1.25;1.08;;;;;;;-143.85;100.00;70650.75;5035887;28;20033;-85
2022/06/15 02:51:03;;;;;;;1.38;1.17;;;;;;;-143.85;100.00;70650.75;5035599;28;20074;-86
2022/06/15 02:53:31;;;;;;;2.67;1.55;;;;;;;-143.85;100.00;70650.75;5035486;28;20090;-86
2022/06/15 02:55:58;;;;;;;2.00;1.33;;;;;;;-143.85;100.00;70650.75;5053487;28;20017;-86
2022/06/15 02:58:34;;;;;;;1.85;1.33;;;;;;;-143.85;100.00;70650.75;5036067;28;20542;-86
2022/06/15 03:01:00;;;;;;;1.77;1.20;;;;;;;-143.85;100.00;70650.75;5035199;28;20124;-85
2022/06/15 03:03:27;;;;;;;1.20;1.10;;;;;;;-143.85;100.00;70650.75;5035739;28;20029;-85
2022/06/15 03:05:53;;;;;;;2.53;1.00;;;;;;;-143.85;100.00;70650.75;5035629;28;20033;-85
2022/06/15 03:08:20;;;;;;;4.78;1.08;;;;;;;-143.85;100.00;70650.75;5053678;28;20029;-86
2022/06/15 03:10:48;;;;;;;3.70;1.88;;;;;;;-143.85;100.00;70650.75;5035745;28;20461;-86
2022/06/15 03:13:13;;;;;;;1.42;1.33;;;;;;;-143.85;100.00;70650.75;5035465;28;20049;-86
2022/06/15 03:15:39;;;;;;;1.73;1.00;;;;;;;-143.85;100.00;70650.75;5035575;28;20476;-86
2022/06/15 03:18:05;;;;;;;2.05;1.92;;;;;;;-143.85;100.00;70650.75;5035540;28;20559;-86
2022/06/15 03:20:30;;;;;;;1.02;0.93;;;;;;;-143.85;100.00;70650.75;5035029;28;20029;-86
2022/06/15 03:22:56;;;;;;;3.60;1.58;;;;;;;-143.85;100.00;70650.75;5035403;28;20025;-86
2022/06/15 03:25:21;;;;;;;1.77;1.33;;;;;;;-143.85;100.00;70650.75;5035653;28;20017;-86
2022/06/15 03:27:48;;;;;;;2.83;1.73;;;;;;;-143.85;100.00;70650.75;5035761;28;20496;-86
2022/06/15 03:30:15;;;;;;;7.60;1.00;;;;;;;-143.85;100.00;70650.75;5035475;28;20033;-86
2022/06/15 03:32:40;;;;;;;1.55;1.38;;;;;;;-143.85;100.00;70650.75;5036002;28;20044;-86
2022/06/15 03:35:06;;;;;;;1.73;1.00;;;;;;;-143.85;100.00;70650.75;5035511;28;20025;-86
2022/06/15 03:37:32;;;;;;;1.13;1.02;;;;;;;-143.85;100.00;70650.75;5035109;28;20036;-87
2022/06/15 03:39:58;;;;;;;3.47;1.30;;;;;;;-143.85;100.00;70650.75;5035297;28;20074;-87
2022/06/15 03:42:25;;;;;;;1.55;1.20;;;;;;;-143.85;100.00;70650.75;5053439;28;20115;-87
2022/06/15 03:44:53;;;;;;;2.05;1.40;;;;;;;-143.85;100.00;70650.75;5035845;28;20025;-88
2022/06/15 03:47:20;;;;;;;1.05;0.95;;;;;;;-143.85;100.00;70650.75;5035366;28;20134;-88
2022/06/15 03:49:50;;;;;;;0.55;0.55;;;;;;;-143.85;100.00;70650.75;5035501;28;20025;-88
2022/06/15 03:52:24;;;;;;;2.33;0.88;;;;;;;-143.85;100.00;70650.75;5053132;28;20036;-87
2022/06/15 03:54:50;;;;;;;4.00;1.00;;;;;;;-143.85;100.00;70650.75;5035202;28;20025;-87
2022/06/15 03:57:19;;;;;;;1.33;1.23;;;;;;;-143.85;100.00;70650.75;5035058;28;20028;-87
2022/06/15 03:59:45;;;;;;;1.10;1.00;;;;;;;-143.85;100.00;70650.75;5053268;28;20029;-87
2022/06/15 04:02:10;;;;;;;1.15;0.90;;;;;;;-143.85;100.00;70650.75;5035092;28;20043;-87
2022/06/15 04:04:36;;;;;;;1.20;1.10;;;;;;;-143.85;100.00;70650.75;5035004;28;20052;-87
2022/06/15 04:07:02;;;;;;;0.80;0.80;;;;;;;-143.85;100.00;70650.75;5035363;28;20044;-85
2022/06/15 04:09:29;;;;;;;4.70;0.80;;;;;;;-143.85;100.00;70650.75;5035261;28;20021;-85
2022/06/15 04:12:10;;;;;;;7.07;0.90;;;;;;;-143.85;100.00;70650.75;5034946;28;20028;-86
2022/06/15 04:14:36;;;;;;;4.38;1.23;;;;;;;-143.85;100.00;70650.75;5034968;28;20061;-88
2022/06/15 04:17:03;;;;;;;0.68;0.68;;;;;;;-143.85;100.00;70650.75;5035556;28;20021;-90
2022/06/15 04:19:32;;;;;;;2.40;1.10;;;;;;;-143.85;100.00;70650.75;5052792;28;20021;-87
2022/06/15 04:21:58;;;;;;;1.05;0.77;;;;;;;-143.85;100.00;70650.75;5035211;28;20029;-87
2022/06/15 04:24:27;;;;;;;0.80;0.80;;;;;;;-143.85;100.00;70650.75;5034262;28;20037;-88
2022/06/15 04:26:53;;;;;;;0.70;0.70;;;;;;;-143.85;100.00;70650.75;5052366;28;20090;-88
2022/06/15 04:29:20;;;;;;;1.30;0.90;;;;;;;-143.85;100.00;70650.75;5035144;28;20017;-88
2022/06/15 04:31:46;;;;;;;0.80;0.80;;;;;;;-143.85;100.00;70650.75;5035140;28;20036;-85
2022/06/15 04:34:12;;;;;;;1.67;0.80;;;;;;;-143.85;100.00;70650.75;5037461;28;20480;-85
2022/06/15 04:36:40;;;;;;;1.27;0.63;;;;;;;-143.85;100.00;70650.75;5037914;28;20036;-86
2022/06/15 04:39:08;;;;;;;1.30;0.77;;;;;;;-143.85;100.00;70650.75;5055505;28;20059;-86
2022/06/15 04:41:36;;;;;;;0.60;0.60;;;;;;;-143.85;100.00;70650.75;5037826;28;20025;-85
2022/06/15 04:44:04;;;;;;;1.67;0.70;;;;;;;-143.85;100.00;70650.75;5037489;28;20060;-85
2022/06/15 04:46:30;;;;;;;0.57;0.57;;;;;;;-143.85;100.00;70650.75;5055466;28;20028;-91
2022/06/15 04:48:55;;;;;;;0.60;0.60;;;;;;;-143.85;100.00;70650.75;5037557;28;20079;-82
2022/06/15 04:51:24;;;;;;;0.65;0.65;;;;;;;-143.85;100.00;70650.75;5037243;28;20025;-81
2022/06/15 04:53:52;;;;;;;0.95;0.60;;;;;;;-143.85;100.00;70650.75;5037041;28;20043;-81
2022/06/15 04:56:18;;;;;;;0.50;0.50;;;;;;;-143.85;100.00;70650.75;5037005;28;20115;-81
2022/06/15 04:58:44;;;;;;;2.88;0.60;;;;;;;-143.85;100.00;70650.75;5036868;28;20420;-81
2022/06/15 05:01:10;;;;;;;1.48;0.63;;;;;;;-143.85;100.00;70650.75;5036022;28;20025;-82
2022/06/15 05:03:37;;;;;;;0.83;0.80;;;;;;;-143.85;100.00;70650.75;5036478;28;20064;-81
2022/06/15 05:06:10;;;;;;;4.65;0.60;;;;;;;-143.85;100.00;70650.75;5054392;28;20036;-82
2022/06/15 05:08:35;;;;;;;0.40;0.40;;;;;;;-143.85;100.00;70650.75;5036795;28;20025;-83
2022/06/15 05:11:01;;;;;;;1.02;0.70;;;;;;;-143.85;100.00;70650.75;5036888;28;20029;-83
2022/06/15 05:13:27;;;;;;;0.43;0.43;;;;;;;-143.85;100.00;70650.75;5036640;28;20132;-82
2022/06/15 05:15:52;;;;;;;0.55;0.50;;;;;;;-143.85;100.00;70650.75;5036794;28;20021;-83
2022/06/15 05:18:18;;;;;;;6.22;0.80;;;;;;;-143.85;100.00;70650.75;5037150;28;20029;-82
2022/06/15 05:20:43;;;;;;;1.13;0.60;;;;;;;-143.85;100.00;70650.75;5036937;28;20083;-83
2022/06/15 05:23:13;;;;;;;2.88;0.60;;;;;;;-143.85;100.00;70650.75;5036802;28;20025;-83
2022/06/15 05:25:39;;;;;;;0.50;0.50;;;;;;;-143.85;100.00;70650.75;5036719;28;20036;-83
2022/06/15 05:28:05;;;;;;;0.80;0.60;;;;;;;-143.85;100.00;70650.75;5036659;28;20115;-83
2022/06/15 05:30:31;;;;;;;1.07;0.40;;;;;;;-143.85;100.00;70650.75;5036733;28;20060;-82
2022/06/15 05:32:56;;;;;;;0.50;0.50;;;;;;;-143.85;100.00;70650.75;5036494;28;20061;-83
2022/06/15 05:35:22;;;;;;;0.63;0.50;;;;;;;-143.85;100.00;70650.75;5036607;28;20033;-83
2022/06/15 05:37:47;;;;;;;0.40;0.40;;;;;;;-143.85;100.00;70650.75;5036474;28;20029;-83
2022/06/15 05:40:13;;;;;;;1.58;0.57;;;;;;;-143.85;100.00;70650.75;5036378;28;20028;-83
2022/06/15 05:42:38;;;;;;;0.60;0.57;;;;;;;-143.85;100.00;70650.75;5036436;28;20021;-83
2022/06/15 05:45:04;;;;;;;0.57;0.40;;;;;;;-143.85;100.00;70650.75;5035745;28;20052;-83
2022/06/15 05:47:30;;;;;;;0.85;0.50;;;;;;;-143.85;100.00;70650.75;5036146;28;20484;-83
2022/06/15 05:49:57;;;;;;;0.63;0.43;;;;;;;-143.85;100.00;70650.75;5036043;28;20036;-83
2022/06/15 05:52:22;;;;;;;0.70;0.50;;;;;;;-143.85;100.00;70650.75;5036257;28;20095;-83
2022/06/15 05:54:48;;;;;;;0.45;0.45;;;;;;;-143.85;100.00;70650.75;5054019;28;20032;-83
2022/06/15 05:57:19;;;;;;;2.40;1.27;;;;;;;-143.85;100.00;70650.75;5036126;28;20116;-83
2022/06/15 05:59:48;;;;;;;0.50;0.50;;;;;;;-143.85;100.00;70650.75;5036047;28;20480;-83
2022/06/15 06:02:16;;;;;;;0.60;0.52;;;;;;;-143.85;100.00;70650.75;5035971;28;20029;-83
2022/06/15 06:04:42;;;;;;;1.38;0.55;;;;;;;-143.85;100.00;70650.75;5035982;28;20028;-83
2022/06/15 06:07:08;;;;;;;0.75;0.55;;;;;;;-143.85;100.00;70650.75;5035996;28;20021;-83
2022/06/15 06:09:34;;;;;;;0.82;0.68;;;;;;;-143.85;100.00;70650.75;5035997;28;20059;-85
2022/06/15 06:11:59;;;;;;;1.38;0.80;;;;;;;-143.85;100.00;70650.75;5035729;28;20037;-84
2022/06/15 06:14:25;;;;;;;1.65;0.47;;;;;;;-143.85;100.00;70650.75;5053533;28;20017;-85
2022/06/15 06:16:50;;;;;;;1.42;0.70;;;;;;;-143.85;100.00;70650.75;5035656;28;20025;-83
2022/06/15 06:19:16;;;;;;;2.53;0.80;;;;;;;-143.85;100.00;70650.75;5035849;28;20036;-84
2022/06/15 06:21:45;;;;;;;0.52;0.52;;;;;;;-143.85;100.00;70650.75;5035710;28;20477;-83
2022/06/15 06:24:12;;;;;;;0.80;0.68;;;;;;;-143.85;100.00;70650.75;5035510;28;20037;-83
2022/06/15 06:26:38;;;;;;;0.70;0.60;;;;;;;-143.85;100.00;70650.75;5035665;28;20111;-84
2022/06/15 06:29:05;;;;;;;0.68;0.60;;;;;;;-143.85;100.00;70650.75;5035508;28;20024;-84
2022/06/15 06:31:31;;;;;;;1.52;0.85;;;;;;;-143.85;100.00;70650.75;5035730;28;20025;-84
2022/06/15 06:33:57;;;;;;;0.50;0.50;;;;;;;-143.85;100.00;70650.75;5035328;28;20029;-83
2022/06/15 06:36:31;;;;;;;1.52;1.00;;;;;;;-143.85;100.00;70650.75;5035364;28;20029;-84
2022/06/15 06:38:58;;;;;;;0.40;0.40;;;;;;;-143.85;100.00;70650.75;5035568;28;20025;-83
2022/06/15 06:41:25;;;;;;;0.98;0.85;;;;;;;-143.85;100.00;70650.75;5035719;28;20107;-84
2022/06/15 06:43:51;;;;;;;0.73;0.65;;;;;;;-143.85;100.00;70650.75;5035735;28;20025;-83
2022/06/15 06:46:17;;;;;;;4.18;0.80;;;;;;;-143.85;100.00;70650.75;5035291;28;20020;-83
2022/06/15 06:48:42;;;;;;;0.47;0.47;;;;;;;-143.85;100.00;70650.75;5035180;28;20036;-83
2022/06/15 06:51:08;;;;;;;1.50;0.40;;;;;;;-143.85;100.00;70650.75;5035040;28;20028;-82
2022/06/15 06:53:35;;;;;;;1.00;0.60;;;;;;;-143.85;100.00;70650.75;5035898;28;20029;-83
2022/06/15 06:56:03;;;;;;;1.23;1.13;;;;;;;-143.85;100.00;70650.75;5035226;28;20385;-84
2022/06/15 06:58:29;;;;;;;0.90;0.68;;;;;;;-143.85;100.00;70650.75;5035162;28;20408;-84
2022/06/15 07:00:54;;;;;;;0.73;0.70;;;;;;;-143.85;100.00;70650.75;5035114;28;20090;-84
2022/06/15 07:03:20;;;;;;;1.00;0.57;;;;;;;-143.85;100.00;70650.75;5035076;28;20029;-84
2022/06/15 07:05:45;;;;;;;1.58;0.65;;;;;;;-143.85;100.00;70650.75;5034772;28;20025;-83
2022/06/15 07:08:12;;;;;;;1.58;0.73;;;;;;;-143.85;100.00;70650.75;5034880;28;20041;-85
2022/06/15 07:10:38;;;;;;;3.13;0.60;;;;;;;-143.85;100.00;70650.75;5034972;28;20032;-83
2022/06/15 07:13:04;;;;;;;3.00;0.70;;;;;;;-143.85;100.00;70650.75;5034428;28;20045;-83
2022/06/15 07:15:30;;;;;;;0.98;0.50;;;;;;;-143.85;100.00;70650.75;5052947;28;20029;-83
2022/06/15 07:18:01;;;;;;;1.85;0.50;;;;;;;-143.85;100.00;70650.75;5034691;28;20037;-83
2022/06/15 07:20:28;;;;;;;0.85;0.57;;;;;;;-143.85;100.00;70650.75;5034962;28;20120;-84
2022/06/15 07:22:54;;;;;;;0.90;0.60;;;;;;;-143.85;100.00;70650.75;5034552;28;20183;-83
2022/06/15 07:25:20;;;;;;;0.82;0.68;;;;;;;-143.85;100.00;70650.75;5034573;28;20127;-84
2022/06/15 07:27:47;;;;;;;0.95;0.60;;;;;;;-143.85;100.00;70650.75;5034546;28;20029;-83
2022/06/15 07:30:16;;;;;;;3.38;0.80;;;;;;;-143.85;100.00;70650.75;5034714;28;20021;-83
2022/06/15 07:32:43;;;;;;;0.50;0.50;;;;;;;-143.85;100.00;70650.75;5034676;28;20473;-84
2022/06/15 07:35:24;;;;;;;0.73;0.50;;;;;;;-143.85;100.00;70650.75;5034655;28;20033;-84
2022/06/15 07:37:51;;;;;;;0.70;0.60;;;;;;;-143.85;100.00;70650.75;5052981;28;20098;-84
2022/06/15 07:40:18;;;;;;;0.75;0.75;;;;;;;-143.85;100.00;70650.75;5034597;28;20485;-84
2022/06/15 07:42:45;;;;;;;4.60;1.02;;;;;;;-143.85;100.00;70650.75;5034598;28;20029;-84
2022/06/15 07:45:11;;;;;;;0.60;0.60;;;;;;;-143.85;100.00;70650.75;5034336;28;20050;-84
2022/06/15 07:50:20;;;;;;;1.05;0.70;;;;;;;-143.85;100.00;70650.75;5052868;28;20098;-84
2022/06/15 07:52:49;;;;;;;3.22;0.70;;;;;;;-143.85;100.00;70650.75;5034626;28;20466;-85
2022/06/15 07:55:18;;;;;;;2.10;0.52;;;;;;;-143.85;100.00;70650.75;5034573;28;20032;-85
2022/06/15 07:57:43;;;;;;;0.63;0.63;;;;;;;-143.85;100.00;70650.75;5034986;28;20025;-85
2022/06/15 08:00:12;;;;;;;2.40;0.85;;;;;;;-143.85;100.00;70650.75;5034359;28;20472;-83
2022/06/15 08:02:38;;;;;;;2.45;1.10;;;;;;;-143.85;100.00;70650.75;5035139;28;20114;-86
2022/06/15 08:05:04;;;;;;;2.45;0.80;;;;;;;-143.85;100.00;70650.75;5034527;28;20045;-85
2022/06/15 08:07:30;;;;;;;1.08;0.88;;;;;;;-143.85;100.00;70650.75;5036572;28;20067;-84
2022/06/15 08:09:55;;;;;;;0.63;0.47;;;;;;;-143.85;100.00;70650.75;5038332;28;20097;-84
2022/06/15 08:12:23;;;;;;;2.20;0.93;;;;;;;-143.85;100.00;70650.75;5038208;28;20044;-85
2022/06/15 08:14:58;;;;;;;1.48;0.60;;;;;;;-143.85;100.00;70650.75;5056612;28;20028;-84
2022/06/15 08:17:33;;;;;;;0.40;0.40;;;;;;;-143.85;100.00;70650.75;5038220;28;20040;-84
2022/06/15 08:20:10;;;;;;;0.77;0.77;;;;;;;-143.85;100.00;70650.75;5056302;28;20017;-84
2022/06/15 08:22:40;;;;;;;4.32;1.33;;;;;;;-143.85;100.00;70650.75;5056066;28;20037;-84
2022/06/15 08:25:09;;;;;;;0.95;0.90;;;;;;;-143.85;100.00;70650.75;5038066;28;20511;-85
2022/06/15 08:27:35;;;;;;;5.10;0.75;;;;;;;-143.85;100.00;70650.75;5038144;28;20424;-84
2022/06/15 08:30:03;;;;;;;3.22;0.80;;;;;;;-143.85;100.00;70650.75;5038022;28;20112;-84
2022/06/15 08:32:29;;;;;;;0.77;0.57;;;;;;;-143.85;100.00;70650.75;5038363;28;20120;-85
2022/06/15 08:34:54;;;;;;;0.80;0.70;;;;;;;-143.85;100.00;70650.75;5038188;28;20659;-84
2022/06/15 08:37:20;;;;;;;0.63;0.63;;;;;;;-143.85;100.00;70650.75;5038022;28;20028;-86
2022/06/15 08:39:45;;;;;;;4.85;0.65;;;;;;;-143.85;100.00;70650.75;5037938;28;20021;-84
2022/06/15 08:42:16;;;;;;;0.70;0.47;;;;;;;-143.85;100.00;70650.75;5037779;28;20036;-84
2022/06/15 08:44:51;;;;;;;0.65;0.65;;;;;;;-143.85;100.00;70650.75;5055570;28;20029;-84
2022/06/15 08:47:42;;;;;;;1.05;0.80;;;;;;;-143.85;100.00;70650.75;5038076;28;20040;-84
2022/06/15 08:50:32;;;;;;;0.57;0.57;;;;;;;-143.85;100.00;70650.75;5038491;28;20051;-86
2022/06/15 08:53:21;;;;;;;0.60;0.60;;;;;;;-143.85;100.00;70650.75;5038116;28;20037;-84
2022/06/15 08:56:10;;;;;;;1.50;0.85;;;;;;;-143.85;100.00;70650.75;5037558;28;20120;-84
2022/06/15 08:58:47;;;;;;;1.05;0.70;;;;;;;-143.85;100.00;70650.75;5037477;28;20116;-85
2022/06/15 09:01:28;;;;;;;0.90;0.70;;;;;;;-143.85;100.00;70650.75;5037593;28;20499;-83
2022/06/15 09:04:20;;;;;;;2.28;0.50;;;;;;;-143.85;100.00;70650.75;5055360;28;20021;-84
2022/06/15 09:06:55;;;;;;;3.58;0.95;;;;;;;-143.85;100.00;70650.75;5055277;28;20025;-84
2022/06/15 09:09:27;;;;;;;0.30;0.30;;;;;;;-143.85;100.00;70650.75;5037686;28;20033;-85
2022/06/15 09:15:02;;;;;;;0.50;0.50;;;;;;;-143.85;100.00;70650.75;5055001;28;20051;-84
2022/06/15 09:17:29;;;;;;;0.50;0.50;;;;;;;-143.85;100.00;70650.75;5054753;28;20508;-83
2022/06/15 09:20:01;;;;;;;1.13;0.50;;;;;;;-143.85;100.00;70650.75;5036377;28;20028;-83
2022/06/15 09:22:34;;;;;;;1.75;0.57;;;;;;;-143.85;100.00;70650.75;5055142;28;20029;-83
2022/06/15 09:25:20;;;;;;;0.75;0.50;;;;;;;-143.85;100.00;70650.75;5037264;28;20017;-85
2022/06/15 09:27:53;;;;;;;0.60;0.60;;;;;;;-143.85;100.00;70650.75;5036895;28;20028;-83
2022/06/15 09:30:23;;;;;;;0.88;0.77;;;;;;;-143.85;100.00;70650.75;5037008;28;20052;-84
2022/06/15 09:33:18;;;;;;;0.38;0.38;;;;;;;-143.85;100.00;70650.75;5036797;28;20035;-84
2022/06/15 09:35:50;;;;;;;0.43;0.40;;;;;;;-143.85;100.00;70650.75;5052625;28;20053;-83
2022/06/15 09:38:16;;;;;;;3.35;0.70;;;;;;;-143.85;100.00;70650.75;5054396;28;20064;-83
2022/06/15 09:41:09;;;;;;;0.40;0.40;;;;;;;-143.85;100.00;70650.75;5036623;28;20500;-84
2022/06/15 09:43:43;;;;;;;0.43;0.30;;;;;;;-143.85;100.00;70650.75;5054594;28;20119;-83
2022/06/15 09:46:14;;;;;;;0.68;0.68;;;;;;;-143.85;100.00;70650.75;5036651;28;20025;-83
2022/06/15 09:49:03;;;;;;;0.77;0.68;;;;;;;-143.85;100.00;70650.75;5036486;28;20032;-83
2022/06/15 09:52:09;;;;;;;0.60;0.60;;;;;;;-143.85;100.00;70650.75;5054561;28;20108;-83
2022/06/15 09:54:41;;;;;;;3.77;1.17;;;;;;;-143.85;100.00;70650.75;5023115;28;20041;-83
2022/06/15 09:57:07;;;;;;;0.45;0.40;;;;;;;-143.85;100.00;70650.75;5036339;28;20037;-83
2022/06/15 09:59:33;;;;;;;0.52;0.43;;;;;;;-143.85;100.00;70650.75;5036307;28;20036;-83
2022/06/15 10:02:02;;;;;;;0.60;0.60;;;;;;;-143.85;100.00;70650.75;5036031;28;20052;-85
2022/06/15 10:04:31;;;;;;;1.38;0.57;;;;;;;-143.85;100.00;70650.75;5036299;28;20025;-83
2022/06/15 10:07:11;;;;;;;0.73;0.60;;;;;;;-143.85;100.00;70650.75;5036118;28;20455;-83
2022/06/15 10:09:43;;;;;;;1.40;0.70;;;;;;;-143.85;100.00;70650.75;5036706;28;20116;-85
2022/06/15 10:15:16;;;;;;;1.05;0.75;;;;;;;-143.85;100.00;70650.75;5054110;28;20122;-84
2022/06/15 10:17:54;;;;;;;0.60;0.57;;;;;;;-143.85;100.00;70650.75;5035859;28;20534;-84
2022/06/15 10:20:23;;;;;;;0.55;0.55;;;;;;;-143.85;100.00;70650.75;5035919;28;20037;-83
2022/06/15 10:22:53;;;;;;;0.77;0.60;;;;;;;-143.85;100.00;70650.75;5035788;28;20037;-84
2022/06/15 10:25:19;;;;;;;0.80;0.65;;;;;;;-143.85;100.00;70650.75;5053576;28;20029;-84
2022/06/15 10:27:45;;;;;;;0.60;0.60;;;;;;;-143.85;100.00;70650.75;5036200;28;20028;-86
2022/06/15 10:30:10;;;;;;;1.60;0.80;;;;;;;-143.85;100.00;70650.75;5035486;28;20029;-85
2022/06/15 10:32:40;;;;;;;3.97;1.02;;;;;;;-143.85;100.00;70650.75;5035516;28;20405;-83
2022/06/15 10:35:18;;;;;;;2.45;1.10;;;;;;;-143.85;100.00;70650.75;5035952;28;20036;-85
2022/06/15 10:37:51;;;;;;;1.30;0.75;;;;;;;-143.85;100.00;70650.75;5053836;28;20448;-84
2022/06/15 10:40:18;;;;;;;0.60;0.50;;;;;;;-143.85;100.00;70650.75;5035517;28;20025;-84
2022/06/15 10:42:51;;;;;;;0.40;0.40;;;;;;;-143.85;100.00;70650.75;5035692;28;20029;-83
2022/06/15 10:45:37;;;;;;;0.57;0.57;;;;;;;-143.85;100.00;70650.75;5035621;28;20120;-84
2022/06/15 10:48:20;;;;;;;0.70;0.70;;;;;;;-143.85;100.00;70650.75;5035621;28;20037;-84
2022/06/15 10:50:58;;;;;;;1.63;0.65;;;;;;;-143.85;100.00;70650.75;5035205;28;20549;-83
2022/06/15 10:53:27;;;;;;;;;;;;;;;-143.85;100.00;70650.75;5035752;28;20025;-83
2022/06/15 11:02:07;;;;;;;0.50;0.50;;;;;;;-143.85;100.00;70650.75;5053537;28;20040;-83
2022/06/15 11:04:56;;;;;;;0.80;0.55;;;;;;;-143.85;100.00;70650.75;5035215;28;20037;-82
2022/06/15 11:07:21;;;;;;;1.75;0.90;;;;;;;-143.85;100.00;70650.75;5034198;28;20473;-82
2022/06/15 11:09:55;;;;;;;1.25;0.88;;;;;;;-143.85;100.00;70650.75;5034977;28;20053;-83
2022/06/15 11:12:26;;;;;;;0.77;0.70;;;;;;;-143.85;100.00;70650.75;5034555;28;20072;-82
2022/06/15 11:14:56;;;;;;;0.63;0.52;;;;;;;-143.85;100.00;70650.75;5034831;28;20028;-83
2022/06/15 11:20:43;;;;;;;1.40;0.60;;;;;;;-143.85;100.00;70650.75;5052920;28;20039;-82
2022/06/15 11:23:14;;;;;;;1.70;1.00;;;;;;;-143.85;100.00;70650.75;5034552;28;20074;-83
2022/06/15 11:25:54;;;;;;;1.13;0.85;;;;;;;-143.85;100.00;70650.75;5035639;28;20101;-88
2022/06/15 11:28:40;;;;;;;2.35;0.93;;;;;;;-143.85;100.00;70650.75;5053249;28;20021;-87
2022/06/15 11:31:13;;;;;;;0.80;0.80;;;;;;;-143.85;100.00;70650.75;5035122;28;20029;-85
2022/06/15 11:33:43;;;;;;;0.63;0.63;;;;;;;-143.85;100.00;70650.75;5052897;28;20078;-88
2022/06/15 11:36:57;;;;;;;0.82;0.50;;;;;;;-143.85;100.00;70650.75;5053077;28;20029;-87
2022/06/15 11:39:32;;;;;;;1.05;0.50;;;;;;;-143.85;100.00;70650.75;4956030;28;20033;-88
2022/06/15 11:41:58;;;;;;;0.70;0.70;;;;;;;-143.85;100.00;70650.75;4972243;28;20035;-86